Carnival Miracle — H3VS — position and weather

sailwx.info

Track history (hours):
 
Tides and Currents Weather Stations Pressure Air Temp Water Temp Dewpoint Dewpoint Depression Visibility Wind Speed Wind Dir Waves Ship Positions

Carnival Miracle

Operator: Carnival Cruise Lines

Last reported at 2019-Feb-21 04:00 UTC. Time now 2019-Feb-23 23:02 UTC.
Position N 16°48' W 087°30'.

Type: Ship. MMSI: 35437000.

Wind from 080 at 34 knots

Barometer 1010.2 mb
Air temperature 22.0 ° C
Visibility: greater than 5.4 NM
Dewpoint 19.0 ° C
Water temperature 26.0 ° C

Date/timePositionNaut miles runAvg speedWind from/ knotsBaromVisibWave heightAir tempDewpointWater temp
2019-Feb-21 04:00N 16°48' W 087°30'200 7.1 080 / 341010.2 5.4 22.019.026.0
2019-Feb-20 00:00N 20°06' W 087°00'1117.9 110 / 221013.9 26.026.027.0
2019-Feb-19 23:24N 20°15' W 087°05'718.1
2019-Feb-19 23:00N 20°22' W 087°04'815.5
2019-Feb-19 22:30N 20°29' W 086°60'1 2.1
2019-Feb-19 21:59N 20°29' W 086°59'0 0.0
2019-Feb-19 21:29N 20°29' W 086°59'0 0.0
2019-Feb-19 20:56N 20°29' W 086°59'0 0.0
2019-Feb-19 20:29N 20°29' W 086°59'0 0.0
2019-Feb-19 19:59N 20°29' W 086°59'0 0.0
2019-Feb-19 19:28N 20°29' W 086°59'0 0.0
2019-Feb-19 18:55N 20°29' W 086°59'0 0.0
2019-Feb-19 18:25N 20°29' W 086°59'0 0.0
2019-Feb-19 17:58N 20°29' W 086°59'0 0.0
2019-Feb-19 17:30N 20°29' W 086°59'0 0.0
2019-Feb-19 17:00N 20°29' W 086°59'0 0.0
2019-Feb-19 16:30N 20°29' W 086°59'0 0.0
2019-Feb-19 16:00N 20°29' W 086°59'0 0.0
2019-Feb-19 15:30N 20°29' W 086°59'0 0.0
2019-Feb-19 14:59N 20°29' W 086°59'0 0.0
2019-Feb-19 14:29N 20°29' W 086°59'0 0.0
2019-Feb-19 13:59N 20°29' W 086°59'0 0.0
2019-Feb-19 13:29N 20°29' W 086°59'0 0.0
2019-Feb-19 12:59N 20°29' W 086°59'0 0.0
2019-Feb-19 12:30N 20°29' W 086°59'2 3.7
2019-Feb-19 12:00N 20°30' W 086°59'4 7.1
2019-Feb-19 11:30N 20°33' W 086°58'4 8.2
2019-Feb-19 11:00N 20°37' W 086°55'4 8.7
2019-Feb-19 10:30N 20°40' W 086°52'48713.5
2019-Feb-17 22:21N 27°45' W 082°31'412.1
2019-Feb-17 22:00N 27°48' W 082°28'612.2
2019-Feb-17 21:30N 27°54' W 082°26'2 4.8
2019-Feb-17 21:00N 27°57' W 082°27'0 0.3
2019-Feb-17 20:28N 27°57' W 082°27'0 0.0
2019-Feb-17 19:58N 27°57' W 082°27'0 0.0
2019-Feb-17 19:28N 27°57' W 082°27'0 0.0
2019-Feb-17 18:58N 27°57' W 082°27'0 0.0
2019-Feb-17 18:31N 27°57' W 082°27'0 0.0
2019-Feb-17 18:00N 27°57' W 082°27'0 0.0
2019-Feb-17 17:30N 27°57' W 082°27'0 0.0
2019-Feb-17 17:00N 27°57' W 082°27'0 0.0
2019-Feb-17 16:30N 27°57' W 082°27'0 0.0
2019-Feb-17 15:59N 27°57' W 082°27'0 0.0
2019-Feb-17 15:29N 27°57' W 082°27'0 0.0
2019-Feb-17 14:59N 27°57' W 082°27'0 0.0
2019-Feb-17 14:29N 27°57' W 082°27'0 0.0
2019-Feb-17 13:59N 27°57' W 082°27'0 0.0
2019-Feb-17 13:31N 27°57' W 082°27'0 0.0
2019-Feb-17 13:00N 27°57' W 082°27'0 0.0
2019-Feb-17 12:30N 27°57' W 082°27'0 0.0
2019-Feb-17 12:01N 27°57' W 082°27'0 0.0
2019-Feb-17 11:30N 27°57' W 082°27'0 0.0
2019-Feb-17 11:00N 27°57' W 082°27'0 0.0
2019-Feb-17 10:30N 27°57' W 082°27'0 0.0
2019-Feb-17 10:00N 27°57' W 082°27'0 0.0
2019-Feb-17 09:30N 27°57' W 082°27'0 0.5
2019-Feb-17 09:00N 27°56' W 082°27'1 2.9
2019-Feb-17 08:30N 27°55' W 082°27'3 6.7
2019-Feb-17 08:00N 27°52' W 082°27'611.9
2019-Feb-17 07:29N 27°47' W 082°31'17718.6
2019-Feb-16 22:00N 25°12' W 084°06'   150 / 181012.0 25.025.027.0
2019-Feb-14 04:00N 16°42' W 087°18'211 7.4 010 / 131017.1 22.019.026.0
2019-Feb-12 23:22N 20°13' W 087°05'718.5
2019-Feb-12 23:00N 20°20' W 087°05'816.4
2019-Feb-12 22:30N 20°27' W 087°02'3 6.2
2019-Feb-12 22:00N 20°29' W 086°59'0 0.0
2019-Feb-12 21:30N 20°29' W 086°59'0 0.0
2019-Feb-12 21:00N 20°29' W 086°59'0 0.0
2019-Feb-12 20:29N 20°29' W 086°59'0 0.0
2019-Feb-12 19:59N 20°29' W 086°59'0 0.0
2019-Feb-12 19:29N 20°29' W 086°59'0 0.0
2019-Feb-12 18:59N 20°29' W 086°59'0 0.0
2019-Feb-12 18:25N 20°29' W 086°59'0 0.0
2019-Feb-12 17:58N 20°29' W 086°59'0 0.0
2019-Feb-12 17:28N 20°29' W 086°59'0 0.0
2019-Feb-12 16:58N 20°29' W 086°59'0 0.0
2019-Feb-12 16:25N 20°29' W 086°59'0 0.0
2019-Feb-12 16:00N 20°29' W 086°59'0 0.0
2019-Feb-12 15:30N 20°29' W 086°59'0 0.0
2019-Feb-12 14:57N 20°29' W 086°59'0 0.0
2019-Feb-12 14:30N 20°29' W 086°59'0 0.0
2019-Feb-12 14:00N 20°29' W 086°59'0 0.0
2019-Feb-12 13:30N 20°29' W 086°59'0 0.0
2019-Feb-12 13:00N 20°29' W 086°59'0 0.1
2019-Feb-12 12:30N 20°29' W 086°59'2 4.3
2019-Feb-12 12:00N 20°31' W 086°59'7 8.9
2019-Feb-12 11:14N 20°37' W 086°55'2 8.1
2019-Feb-12 11:00N 20°38' W 086°54'4 7.7
2019-Feb-12 10:27N 20°41' W 086°51'59 9.1
2019-Feb-12 04:00N 21°06' W 085°54'   120 / 241015.510.8 24.021.126.0
Track history (hours):
 
Tides and Currents Weather Stations Pressure Air Temp Water Temp Dewpoint Dewpoint Depression Visibility Wind Speed Wind Dir Waves Ship Positions

Carnival Miracle

Operator: Carnival Cruise Lines

Last reported at 2019-Feb-21 04:00 UTC. Time now 2019-Feb-23 23:02 UTC.
Position N 16°48' W 087°30'.

Type: Ship. MMSI: 35437000.

Wind from 080 at 34 knots

Barometer 1010.2 mb
Air temperature 22.0 ° C
Visibility: greater than 5.4 NM
Dewpoint 19.0 ° C
Water temperature 26.0 ° C

Date/timePositionNaut miles runAvg speedWind from/ knotsBaromVisibWave heightAir tempDewpointWater temp
2019-Feb-21 04:00N 16°48' W 087°30'200 7.1 080 / 341010.2 5.4 22.019.026.0
2019-Feb-20 00:00N 20°06' W 087°00'1117.9 110 / 221013.9 26.026.027.0
2019-Feb-19 23:24N 20°15' W 087°05'718.1
2019-Feb-19 23:00N 20°22' W 087°04'815.5
2019-Feb-19 22:30N 20°29' W 086°60'1 2.1
2019-Feb-19 21:59N 20°29' W 086°59'0 0.0
2019-Feb-19 21:29N 20°29' W 086°59'0 0.0
2019-Feb-19 20:56N 20°29' W 086°59'0 0.0
2019-Feb-19 20:29N 20°29' W 086°59'0 0.0
2019-Feb-19 19:59N 20°29' W 086°59'0 0.0
2019-Feb-19 19:28N 20°29' W 086°59'0 0.0
2019-Feb-19 18:55N 20°29' W 086°59'0 0.0
2019-Feb-19 18:25N 20°29' W 086°59'0 0.0
2019-Feb-19 17:58N 20°29' W 086°59'0 0.0
2019-Feb-19 17:30N 20°29' W 086°59'0 0.0
2019-Feb-19 17:00N 20°29' W 086°59'0 0.0
2019-Feb-19 16:30N 20°29' W 086°59'0 0.0
2019-Feb-19 16:00N 20°29' W 086°59'0 0.0
2019-Feb-19 15:30N 20°29' W 086°59'0 0.0
2019-Feb-19 14:59N 20°29' W 086°59'0 0.0
2019-Feb-19 14:29N 20°29' W 086°59'0 0.0
2019-Feb-19 13:59N 20°29' W 086°59'0 0.0
2019-Feb-19 13:29N 20°29' W 086°59'0 0.0
2019-Feb-19 12:59N 20°29' W 086°59'0 0.0
2019-Feb-19 12:30N 20°29' W 086°59'2 3.7
2019-Feb-19 12:00N 20°30' W 086°59'4 7.1
2019-Feb-19 11:30N 20°33' W 086°58'4 8.2
2019-Feb-19 11:00N 20°37' W 086°55'4 8.7
2019-Feb-19 10:30N 20°40' W 086°52'48713.5
2019-Feb-17 22:21N 27°45' W 082°31'412.1
2019-Feb-17 22:00N 27°48' W 082°28'612.2
2019-Feb-17 21:30N 27°54' W 082°26'2 4.8
2019-Feb-17 21:00N 27°57' W 082°27'0 0.3
2019-Feb-17 20:28N 27°57' W 082°27'0 0.0
2019-Feb-17 19:58N 27°57' W 082°27'0 0.0
2019-Feb-17 19:28N 27°57' W 082°27'0 0.0
2019-Feb-17 18:58N 27°57' W 082°27'0 0.0
2019-Feb-17 18:31N 27°57' W 082°27'0 0.0
2019-Feb-17 18:00N 27°57' W 082°27'0 0.0
2019-Feb-17 17:30N 27°57' W 082°27'0 0.0
2019-Feb-17 17:00N 27°57' W 082°27'0 0.0
2019-Feb-17 16:30N 27°57' W 082°27'0 0.0
2019-Feb-17 15:59N 27°57' W 082°27'0 0.0
2019-Feb-17 15:29N 27°57' W 082°27'0 0.0
2019-Feb-17 14:59N 27°57' W 082°27'0 0.0
2019-Feb-17 14:29N 27°57' W 082°27'0 0.0
2019-Feb-17 13:59N 27°57' W 082°27'0 0.0
2019-Feb-17 13:31N 27°57' W 082°27'0 0.0
2019-Feb-17 13:00N 27°57' W 082°27'0 0.0
2019-Feb-17 12:30N 27°57' W 082°27'0 0.0
2019-Feb-17 12:01N 27°57' W 082°27'0 0.0
2019-Feb-17 11:30N 27°57' W 082°27'0 0.0
2019-Feb-17 11:00N 27°57' W 082°27'0 0.0
2019-Feb-17 10:30N 27°57' W 082°27'0 0.0
2019-Feb-17 10:00N 27°57' W 082°27'0 0.0
2019-Feb-17 09:30N 27°57' W 082°27'0 0.5
2019-Feb-17 09:00N 27°56' W 082°27'1 2.9
2019-Feb-17 08:30N 27°55' W 082°27'3 6.7
2019-Feb-17 08:00N 27°52' W 082°27'611.9
2019-Feb-17 07:29N 27°47' W 082°31'17718.6
2019-Feb-16 22:00N 25°12' W 084°06'   150 / 181012.0 25.025.027.0
2019-Feb-14 04:00N 16°42' W 087°18'211 7.4 010 / 131017.1 22.019.026.0
2019-Feb-12 23:22N 20°13' W 087°05'718.5
2019-Feb-12 23:00N 20°20' W 087°05'816.4
2019-Feb-12 22:30N 20°27' W 087°02'3 6.2
2019-Feb-12 22:00N 20°29' W 086°59'0 0.0
2019-Feb-12 21:30N 20°29' W 086°59'0 0.0
2019-Feb-12 21:00N 20°29' W 086°59'0 0.0
2019-Feb-12 20:29N 20°29' W 086°59'0 0.0
2019-Feb-12 19:59N 20°29' W 086°59'0 0.0
2019-Feb-12 19:29N 20°29' W 086°59'0 0.0
2019-Feb-12 18:59N 20°29' W 086°59'0 0.0
2019-Feb-12 18:25N 20°29' W 086°59'0 0.0
2019-Feb-12 17:58N 20°29' W 086°59'0 0.0
2019-Feb-12 17:28N 20°29' W 086°59'0 0.0
2019-Feb-12 16:58N 20°29' W 086°59'0 0.0
2019-Feb-12 16:25N 20°29' W 086°59'0 0.0
2019-Feb-12 16:00N 20°29' W 086°59'0 0.0
2019-Feb-12 15:30N 20°29' W 086°59'0 0.0
2019-Feb-12 14:57N 20°29' W 086°59'0 0.0
2019-Feb-12 14:30N 20°29' W 086°59'0 0.0
2019-Feb-12 14:00N 20°29' W 086°59'0 0.0
2019-Feb-12 13:30N 20°29' W 086°59'0 0.0
2019-Feb-12 13:00N 20°29' W 086°59'0 0.1
2019-Feb-12 12:30N 20°29' W 086°59'2 4.3
2019-Feb-12 12:00N 20°31' W 086°59'7 8.9
2019-Feb-12 11:14N 20°37' W 086°55'2 8.1
2019-Feb-12 11:00N 20°38' W 086°54'4 7.7
2019-Feb-12 10:27N 20°41' W 086°51'59 9.1
2019-Feb-12 04:00N 21°06' W 085°54'   120 / 241015.510.8 24.021.126.0

Dump ship's entire track history